Time;durP1;ratioP1;P1;durP2;ratioP2;P2;SDS_P1;SDS_P2;PMS_P1;PMS_P2;Temp;Humidity;BMP_temperature;BMP_pressure;BME280_temperature;BME280_humidity;BME280_pressure;Samples;Min_cycle;Max_cycle;Signal;HPM_P1;HPM_P2
2021/01/25 00:00:16;;;;;;;5.55;3.2;;;;;;;-3.82;79.00488;93596.62;;;;
2021/01/25 00:01:19;;;;;;;5.55;3.2;;;;;;;-3.82;79.00488;93596.62;;;;
2021/01/25 00:02:20;;;;;;;5.55;3.2;;;;;;;-3.82;79.00488;93596.62;;;;
2021/01/25 00:03:20;;;;;;;5.55;3.2;;;;;;;-3.82;79.00488;93596.62;;;;
2021/01/25 00:04:21;;;;;;;5.55;3.2;;;;;;;-3.82;79.00488;93596.62;;;;
2021/01/25 00:05:21;;;;;;;6.099999;3.3;;;;;;;-3.74;79.02051;93601.35;;;;
2021/01/25 00:06:22;;;;;;;6.099999;3.3;;;;;;;-3.74;79.02051;93601.35;;;;
2021/01/25 00:07:22;;;;;;;6.099999;3.3;;;;;;;-3.74;79.02051;93601.35;;;;
2021/01/25 00:08:23;;;;;;;6.099999;3.3;;;;;;;-3.74;79.02051;93601.35;;;;
2021/01/25 00:09:23;;;;;;;6.099999;3.3;;;;;;;-3.74;79.02051;93601.35;;;;
2021/01/25 00:10:24;;;;;;;6.099999;3.3;;;;;;;-3.74;79.02051;93601.35;;;;
2021/01/25 00:11:24;;;;;;;6.099999;3.3;;;;;;;-3.74;79.02051;93601.35;;;;
2021/01/25 00:12:25;;;;;;;6.099999;3.3;;;;;;;-3.74;79.02051;93601.35;;;;
2021/01/25 00:13:25;;;;;;;6.099999;3.3;;;;;;;-3.74;79.02051;93601.35;;;;
2021/01/25 00:14:26;;;;;;;6.099999;3.3;;;;;;;-3.74;79.02051;93601.35;;;;
2021/01/25 00:15:26;;;;;;;6.099999;3.3;;;;;;;-3.74;79.02051;93601.35;;;;
2021/01/25 00:16:27;;;;;;;7.250001;3.3;;;;;;;-3.8;79.02051;93607.3;;;;
2021/01/25 00:17:27;;;;;;;7.250001;3.3;;;;;;;-3.8;79.02051;93607.3;;;;
2021/01/25 00:18:28;;;;;;;7.250001;3.3;;;;;;;-3.8;79.02051;93607.3;;;;
2021/01/25 00:19:28;;;;;;;7.250001;3.3;;;;;;;-3.8;79.02051;93607.3;;;;
2021/01/25 00:20:29;;;;;;;7.250001;3.3;;;;;;;-3.8;79.02051;93607.3;;;;
2021/01/25 00:21:29;;;;;;;7.250001;3.3;;;;;;;-3.8;79.02051;93607.3;;;;
2021/01/25 00:22:30;;;;;;;7.250001;3.3;;;;;;;-3.8;79.02051;93607.3;;;;
2021/01/25 00:23:30;;;;;;;7.250001;3.3;;;;;;;-3.8;79.02051;93607.3;;;;
2021/01/25 00:24:31;;;;;;;7.250001;3.3;;;;;;;-3.8;79.02051;93607.3;;;;
2021/01/25 00:25:31;;;;;;;7.250001;3.3;;;;;;;-3.8;79.02051;93607.3;;;;
2021/01/25 00:26:31;;;;;;;5;2.85;;;;;;;-3.93;79.34473;93601.98;;;;
2021/01/25 00:27:32;;;;;;;5;2.85;;;;;;;-3.93;79.34473;93601.98;;;;
2021/01/25 00:28:32;;;;;;;5;2.85;;;;;;;-3.93;79.34473;93601.98;;;;
2021/01/25 00:29:33;;;;;;;5;2.85;;;;;;;-3.93;79.34473;93601.98;;;;
2021/01/25 00:30:33;;;;;;;5;2.85;;;;;;;-3.93;79.34473;93601.98;;;;
2021/01/25 00:31:34;;;;;;;5;2.85;;;;;;;-3.93;79.34473;93601.98;;;;
2021/01/25 00:32:34;;;;;;;5;2.85;;;;;;;-3.93;79.34473;93601.98;;;;
2021/01/25 00:33:35;;;;;;;5;2.85;;;;;;;-3.93;79.34473;93601.98;;;;
2021/01/25 00:34:35;;;;;;;5;2.85;;;;;;;-3.93;79.34473;93601.98;;;;
2021/01/25 00:35:38;;;;;;;5;2.85;;;;;;;-3.93;79.34473;93601.98;;;;
2021/01/25 00:36:38;;;;;;;5;2.85;;;;;;;-3.93;79.34473;93601.98;;;;
2021/01/25 00:37:38;;;;;;;5.5;2.75;;;;;;;-4.12;79.69336;93591.61;;;;
2021/01/25 00:38:39;;;;;;;5.5;2.75;;;;;;;-4.12;79.69336;93591.61;;;;
2021/01/25 00:39:40;;;;;;;5.5;2.75;;;;;;;-4.12;79.69336;93591.61;;;;
2021/01/25 00:40:41;;;;;;;5.5;2.75;;;;;;;-4.12;79.69336;93591.61;;;;
2021/01/25 00:41:41;;;;;;;5.5;2.75;;;;;;;-4.12;79.69336;93591.61;;;;
2021/01/25 00:42:42;;;;;;;5.5;2.75;;;;;;;-4.12;79.69336;93591.61;;;;
2021/01/25 00:43:42;;;;;;;5.5;2.75;;;;;;;-4.12;79.69336;93591.61;;;;
2021/01/25 00:44:44;;;;;;;5.5;2.75;;;;;;;-4.12;79.69336;93591.61;;;;
2021/01/25 00:45:44;;;;;;;5.5;2.75;;;;;;;-4.12;79.69336;93591.61;;;;
2021/01/25 00:46:45;;;;;;;5.5;2.75;;;;;;;-4.12;79.69336;93591.61;;;;
2021/01/25 00:47:45;;;;;;;5.5;2.75;;;;;;;-4.12;79.69336;93591.61;;;;
2021/01/25 00:48:46;;;;;;;4.35;2.95;;;;;;;-4.31;79.79199;93579.96;;;;
2021/01/25 00:49:46;;;;;;;4.35;2.95;;;;;;;-4.31;79.79199;93579.96;;;;
2021/01/25 00:50:47;;;;;;;4.35;2.95;;;;;;;-4.31;79.79199;93579.96;;;;
2021/01/25 00:51:47;;;;;;;4.35;2.95;;;;;;;-4.31;79.79199;93579.96;;;;
2021/01/25 00:52:48;;;;;;;4.35;2.95;;;;;;;-4.31;79.79199;93579.96;;;;
2021/01/25 00:53:48;;;;;;;4.35;2.95;;;;;;;-4.31;79.79199;93579.96;;;;
2021/01/25 00:54:49;;;;;;;4.35;2.95;;;;;;;-4.31;79.79199;93579.96;;;;
2021/01/25 00:55:49;;;;;;;4.35;2.95;;;;;;;-4.31;79.79199;93579.96;;;;
2021/01/25 00:56:50;;;;;;;4.35;2.95;;;;;;;-4.31;79.79199;93579.96;;;;
2021/01/25 00:57:50;;;;;;;4.35;2.95;;;;;;;-4.31;79.79199;93579.96;;;;
2021/01/25 00:58:51;;;;;;;5.45;3.2;;;;;;;-4.54;79.91406;93577.92;;;;
2021/01/25 00:59:51;;;;;;;5.45;3.2;;;;;;;-4.54;79.91406;93577.92;;;;
2021/01/25 01:00:52;;;;;;;5.45;3.2;;;;;;;-4.54;79.91406;93577.92;;;;
2021/01/25 01:01:53;;;;;;;5.45;3.2;;;;;;;-4.54;79.91406;93577.92;;;;
2021/01/25 01:02:53;;;;;;;5.45;3.2;;;;;;;-4.54;79.91406;93577.92;;;;
2021/01/25 01:03:54;;;;;;;5.45;3.2;;;;;;;-4.54;79.91406;93577.92;;;;
2021/01/25 01:04:54;;;;;;;5.45;3.2;;;;;;;-4.54;79.91406;93577.92;;;;
2021/01/25 01:05:55;;;;;;;5.45;3.2;;;;;;;-4.54;79.91406;93577.92;;;;
2021/01/25 01:06:55;;;;;;;5.45;3.2;;;;;;;-4.54;79.91406;93577.92;;;;
2021/01/25 01:07:55;;;;;;;5.45;3.2;;;;;;;-4.54;79.91406;93577.92;;;;
2021/01/25 01:08:56;;;;;;;5.45;3.2;;;;;;;-4.54;79.91406;93577.92;;;;
2021/01/25 01:09:56;;;;;;;6.05;3.05;;;;;;;-4.67;80.24805;93564.7;;;;
2021/01/25 01:10:57;;;;;;;6.05;3.05;;;;;;;-4.67;80.24805;93564.7;;;;
2021/01/25 01:11:58;;;;;;;6.05;3.05;;;;;;;-4.67;80.24805;93564.7;;;;
2021/01/25 01:12:58;;;;;;;6.05;3.05;;;;;;;-4.67;80.24805;93564.7;;;;
2021/01/25 01:13:59;;;;;;;6.05;3.05;;;;;;;-4.67;80.24805;93564.7;;;;
2021/01/25 01:14:59;;;;;;;6.05;3.05;;;;;;;-4.67;80.24805;93564.7;;;;
2021/01/25 01:16:00;;;;;;;6.05;3.05;;;;;;;-4.67;80.24805;93564.7;;;;
2021/01/25 01:17:00;;;;;;;6.05;3.05;;;;;;;-4.67;80.24805;93564.7;;;;
2021/01/25 01:18:01;;;;;;;6.05;3.05;;;;;;;-4.67;80.24805;93564.7;;;;
2021/01/25 01:19:02;;;;;;;6.05;3.05;;;;;;;-4.67;80.24805;93564.7;;;;
2021/01/25 01:20:03;;;;;;;5.499999;3.15;;;;;;;-4.74;80.22461;93560.69;;;;
2021/01/25 01:21:05;;;;;;;5.499999;3.15;;;;;;;-4.74;80.22461;93560.69;;;;
2021/01/25 01:22:06;;;;;;;5.499999;3.15;;;;;;;-4.74;80.22461;93560.69;;;;
2021/01/25 01:23:06;;;;;;;5.499999;3.15;;;;;;;-4.74;80.22461;93560.69;;;;
2021/01/25 01:24:07;;;;;;;5.499999;3.15;;;;;;;-4.74;80.22461;93560.69;;;;
2021/01/25 01:25:08;;;;;;;5.499999;3.15;;;;;;;-4.74;80.22461;93560.69;;;;
2021/01/25 01:26:09;;;;;;;5.499999;3.15;;;;;;;-4.74;80.22461;93560.69;;;;
2021/01/25 01:27:09;;;;;;;5.499999;3.15;;;;;;;-4.74;80.22461;93560.69;;;;
2021/01/25 01:28:10;;;;;;;5.499999;3.15;;;;;;;-4.74;80.22461;93560.69;;;;
2021/01/25 01:29:11;;;;;;;5.499999;3.15;;;;;;;-4.74;80.22461;93560.69;;;;
2021/01/25 01:30:11;;;;;;;5.499999;3.15;;;;;;;-4.74;80.22461;93560.69;;;;
2021/01/25 01:31:13;;;;;;;4.4;3;;;;;;;-4.78;80.32031;93558.63;;;;
2021/01/25 01:32:13;;;;;;;4.4;3;;;;;;;-4.78;80.32031;93558.63;;;;
2021/01/25 01:33:14;;;;;;;4.4;3;;;;;;;-4.78;80.32031;93558.63;;;;
2021/01/25 01:34:14;;;;;;;4.4;3;;;;;;;-4.78;80.32031;93558.63;;;;
2021/01/25 01:35:15;;;;;;;4.4;3;;;;;;;-4.78;80.32031;93558.63;;;;
2021/01/25 01:36:16;;;;;;;4.4;3;;;;;;;-4.78;80.32031;93558.63;;;;
2021/01/25 01:37:16;;;;;;;4.4;3;;;;;;;-4.78;80.32031;93558.63;;;;
2021/01/25 01:38:17;;;;;;;4.4;3;;;;;;;-4.78;80.32031;93558.63;;;;
2021/01/25 01:39:17;;;;;;;4.4;3;;;;;;;-4.78;80.32031;93558.63;;;;
2021/01/25 01:40:18;;;;;;;4.4;3;;;;;;;-4.78;80.32031;93558.63;;;;
2021/01/25 01:41:18;;;;;;;5;3.2;;;;;;;-4.92;80.2832;93541.38;;;;
2021/01/25 01:42:19;;;;;;;5;3.2;;;;;;;-4.92;80.2832;93541.38;;;;
2021/01/25 01:43:19;;;;;;;5;3.2;;;;;;;-4.92;80.2832;93541.38;;;;
2021/01/25 01:44:20;;;;;;;5;3.2;;;;;;;-4.92;80.2832;93541.38;;;;
2021/01/25 01:45:20;;;;;;;5;3.2;;;;;;;-4.92;80.2832;93541.38;;;;
2021/01/25 01:46:21;;;;;;;5;3.2;;;;;;;-4.92;80.2832;93541.38;;;;
2021/01/25 01:47:22;;;;;;;5;3.2;;;;;;;-4.92;80.2832;93541.38;;;;
2021/01/25 01:48:22;;;;;;;5;3.2;;;;;;;-4.92;80.2832;93541.38;;;;
2021/01/25 01:49:23;;;;;;;5;3.2;;;;;;;-4.92;80.2832;93541.38;;;;
2021/01/25 01:50:23;;;;;;;5;3.2;;;;;;;-4.92;80.2832;93541.38;;;;
2021/01/25 01:51:25;;;;;;;5;3.2;;;;;;;-4.92;80.2832;93541.38;;;;
2021/01/25 01:52:25;;;;;;;5.049999;3.05;;;;;;;-5.18;80.45117;93531.85;;;;
2021/01/25 01:53:26;;;;;;;5.049999;3.05;;;;;;;-5.18;80.45117;93531.85;;;;
2021/01/25 01:54:26;;;;;;;5.049999;3.05;;;;;;;-5.18;80.45117;93531.85;;;;
2021/01/25 01:55:27;;;;;;;5.049999;3.05;;;;;;;-5.18;80.45117;93531.85;;;;
2021/01/25 01:56:28;;;;;;;5.049999;3.05;;;;;;;-5.18;80.45117;93531.85;;;;
2021/01/25 01:57:29;;;;;;;5.049999;3.05;;;;;;;-5.18;80.45117;93531.85;;;;
2021/01/25 01:58:33;;;;;;;5.049999;3.05;;;;;;;-5.18;80.45117;93531.85;;;;
2021/01/25 01:59:34;;;;;;;5.049999;3.05;;;;;;;-5.18;80.45117;93531.85;;;;
2021/01/25 02:00:34;;;;;;;5.049999;3.05;;;;;;;-5.18;80.45117;93531.85;;;;
2021/01/25 02:01:35;;;;;;;5.049999;3.05;;;;;;;-5.18;80.45117;93531.85;;;;
2021/01/25 02:02:35;;;;;;;7.45;2.95;;;;;;;-5.44;80.8125;93528.91;;;;
2021/01/25 02:03:36;;;;;;;7.45;2.95;;;;;;;-5.44;80.8125;93528.91;;;;
2021/01/25 02:04:37;;;;;;;7.45;2.95;;;;;;;-5.44;80.8125;93528.91;;;;
2021/01/25 02:05:38;;;;;;;7.45;2.95;;;;;;;-5.44;80.8125;93528.91;;;;
2021/01/25 02:06:40;;;;;;;7.45;2.95;;;;;;;-5.44;80.8125;93528.91;;;;
2021/01/25 02:07:41;;;;;;;7.45;2.95;;;;;;;-5.44;80.8125;93528.91;;;;
2021/01/25 02:08:47;;;;;;;7.45;2.95;;;;;;;-5.44;80.8125;93528.91;;;;
2021/01/25 02:09:49;;;;;;;7.45;2.95;;;;;;;-5.44;80.8125;93528.91;;;;
2021/01/25 02:10:50;;;;;;;7.45;2.95;;;;;;;-5.44;80.8125;93528.91;;;;
2021/01/25 02:11:54;;;;;;;7.45;2.95;;;;;;;-5.44;80.8125;93528.91;;;;
2021/01/25 02:12:55;;;;;;;7.45;2.95;;;;;;;-5.44;80.8125;93528.91;;;;
2021/01/25 02:13:59;;;;;;;5.25;3.2;;;;;;;-5.64;81;93526.53;;;;
2021/01/25 02:15:01;;;;;;;5.25;3.2;;;;;;;-5.64;81;93526.53;;;;
2021/01/25 02:16:04;;;;;;;5.25;3.2;;;;;;;-5.64;81;93526.53;;;;
2021/01/25 02:17:05;;;;;;;5.25;3.2;;;;;;;-5.64;81;93526.53;;;;
2021/01/25 02:18:06;;;;;;;5.25;3.2;;;;;;;-5.64;81;93526.53;;;;
2021/01/25 02:19:07;;;;;;;5.25;3.2;;;;;;;-5.64;81;93526.53;;;;
2021/01/25 02:20:15;;;;;;;5.25;3.2;;;;;;;-5.64;81;93526.53;;;;
2021/01/25 02:21:23;;;;;;;5.25;3.2;;;;;;;-5.64;81;93526.53;;;;
2021/01/25 02:22:29;;;;;;;5.25;3.2;;;;;;;-5.64;81;93526.53;;;;
2021/01/25 02:23:48;;;;;;;5.25;3.2;;;;;;;-5.64;81;93526.53;;;;
2021/01/25 02:25:01;;;;;;;4.25;2.65;;;;;;;-5.78;81.20801;93525.62;;;;
2021/01/25 02:26:09;;;;;;;4.25;2.65;;;;;;;-5.78;81.20801;93525.62;;;;
2021/01/25 02:27:19;;;;;;;4.25;2.65;;;;;;;-5.78;81.20801;93525.62;;;;
2021/01/25 02:28:29;;;;;;;4.25;2.65;;;;;;;-5.78;81.20801;93525.62;;;;
2021/01/25 02:29:31;;;;;;;4.25;2.65;;;;;;;-5.78;81.20801;93525.62;;;;
2021/01/25 02:30:32;;;;;;;4.25;2.65;;;;;;;-5.78;81.20801;93525.62;;;;
2021/01/25 02:31:34;;;;;;;4.25;2.65;;;;;;;-5.78;81.20801;93525.62;;;;
2021/01/25 02:32:37;;;;;;;4.25;2.65;;;;;;;-5.78;81.20801;93525.62;;;;
2021/01/25 02:33:39;;;;;;;4.25;2.65;;;;;;;-5.78;81.20801;93525.62;;;;
2021/01/25 02:34:44;;;;;;;5.3;3.5;;;;;;;-5.91;81.37109;93505.67;;;;
2021/01/25 02:35:45;;;;;;;5.3;3.5;;;;;;;-5.91;81.37109;93505.67;;;;
2021/01/25 02:36:47;;;;;;;5.3;3.5;;;;;;;-5.91;81.37109;93505.67;;;;
2021/01/25 02:37:48;;;;;;;5.3;3.5;;;;;;;-5.91;81.37109;93505.67;;;;
2021/01/25 02:38:52;;;;;;;5.3;3.5;;;;;;;-5.91;81.37109;93505.67;;;;
2021/01/25 02:39:53;;;;;;;5.3;3.5;;;;;;;-5.91;81.37109;93505.67;;;;
2021/01/25 02:40:56;;;;;;;5.3;3.5;;;;;;;-5.91;81.37109;93505.67;;;;
2021/01/25 02:41:59;;;;;;;5.3;3.5;;;;;;;-5.91;81.37109;93505.67;;;;
2021/01/25 02:43:01;;;;;;;5.3;3.5;;;;;;;-5.91;81.37109;93505.67;;;;
2021/01/25 02:44:02;;;;;;;5.3;3.5;;;;;;;-5.91;81.37109;93505.67;;;;
2021/01/25 02:45:05;;;;;;;5.3;3.5;;;;;;;-5.91;81.37109;93505.67;;;;
2021/01/25 02:46:07;;;;;;;5.35;3;;;;;;;-6.03;81.77637;93488.33;;;;
2021/01/25 02:47:09;;;;;;;5.35;3;;;;;;;-6.03;81.77637;93488.33;;;;
2021/01/25 02:48:11;;;;;;;5.35;3;;;;;;;-6.03;81.77637;93488.33;;;;
2021/01/25 02:49:11;;;;;;;5.35;3;;;;;;;-6.03;81.77637;93488.33;;;;
2021/01/25 02:50:12;;;;;;;5.35;3;;;;;;;-6.03;81.77637;93488.33;;;;
2021/01/25 02:51:13;;;;;;;5.35;3;;;;;;;-6.03;81.77637;93488.33;;;;
2021/01/25 02:52:14;;;;;;;5.35;3;;;;;;;-6.03;81.77637;93488.33;;;;
2021/01/25 02:53:14;;;;;;;5.35;3;;;;;;;-6.03;81.77637;93488.33;;;;
2021/01/25 02:54:15;;;;;;;5.35;3;;;;;;;-6.03;81.77637;93488.33;;;;
2021/01/25 02:55:15;;;;;;;5.35;3;;;;;;;-6.03;81.77637;93488.33;;;;
2021/01/25 02:56:16;;;;;;;4.900001;3.2;;;;;;;-6.06;81.93555;93470.7;;;;
2021/01/25 02:57:17;;;;;;;4.900001;3.2;;;;;;;-6.06;81.93555;93470.7;;;;
2021/01/25 02:58:19;;;;;;;4.900001;3.2;;;;;;;-6.06;81.93555;93470.7;;;;
2021/01/25 02:59:20;;;;;;;4.900001;3.2;;;;;;;-6.06;81.93555;93470.7;;;;
2021/01/25 03:00:21;;;;;;;4.900001;3.2;;;;;;;-6.06;81.93555;93470.7;;;;
2021/01/25 03:01:23;;;;;;;4.900001;3.2;;;;;;;-6.06;81.93555;93470.7;;;;
2021/01/25 03:02:26;;;;;;;4.900001;3.2;;;;;;;-6.06;81.93555;93470.7;;;;
2021/01/25 03:03:27;;;;;;;4.900001;3.2;;;;;;;-6.06;81.93555;93470.7;;;;
2021/01/25 03:04:30;;;;;;;4.900001;3.2;;;;;;;-6.06;81.93555;93470.7;;;;
2021/01/25 03:05:32;;;;;;;4.900001;3.2;;;;;;;-6.06;81.93555;93470.7;;;;
2021/01/25 03:06:33;;;;;;;4;2.75;;;;;;;-5.82;82.40234;93464.84;;;;
2021/01/25 03:07:34;;;;;;;4;2.75;;;;;;;-5.82;82.40234;93464.84;;;;
2021/01/25 03:08:34;;;;;;;4;2.75;;;;;;;-5.82;82.40234;93464.84;;;;
2021/01/25 03:09:35;;;;;;;4;2.75;;;;;;;-5.82;82.40234;93464.84;;;;
2021/01/25 03:10:35;;;;;;;4;2.75;;;;;;;-5.82;82.40234;93464.84;;;;
2021/01/25 03:11:36;;;;;;;4;2.75;;;;;;;-5.82;82.40234;93464.84;;;;
2021/01/25 03:12:38;;;;;;;4;2.75;;;;;;;-5.82;82.40234;93464.84;;;;
2021/01/25 03:13:38;;;;;;;4;2.75;;;;;;;-5.82;82.40234;93464.84;;;;
2021/01/25 03:14:39;;;;;;;4;2.75;;;;;;;-5.82;82.40234;93464.84;;;;
2021/01/25 03:15:44;;;;;;;4;2.75;;;;;;;-5.82;82.40234;93464.84;;;;
2021/01/25 03:16:45;;;;;;;4;2.75;;;;;;;-5.82;82.40234;93464.84;;;;
2021/01/25 03:17:46;;;;;;;6.05;2.15;;;;;;;-5.32;82.5;93475.75;;;;
2021/01/25 03:18:46;;;;;;;6.05;2.15;;;;;;;-5.32;82.5;93475.75;;;;
2021/01/25 03:19:47;;;;;;;6.05;2.15;;;;;;;-5.32;82.5;93475.75;;;;
2021/01/25 03:20:48;;;;;;;6.05;2.15;;;;;;;-5.32;82.5;93475.75;;;;
2021/01/25 03:21:48;;;;;;;6.05;2.15;;;;;;;-5.32;82.5;93475.75;;;;
2021/01/25 03:22:50;;;;;;;6.05;2.15;;;;;;;-5.32;82.5;93475.75;;;;
2021/01/25 03:23:51;;;;;;;6.05;2.15;;;;;;;-5.32;82.5;93475.75;;;;
2021/01/25 03:24:51;;;;;;;6.05;2.15;;;;;;;-5.32;82.5;93475.75;;;;
2021/01/25 03:25:52;;;;;;;6.05;2.15;;;;;;;-5.32;82.5;93475.75;;;;
2021/01/25 03:26:53;;;;;;;6.05;2.15;;;;;;;-5.32;82.5;93475.75;;;;
2021/01/25 03:27:53;;;;;;;6.05;2.15;;;;;;;-5.32;82.5;93475.75;;;;
2021/01/25 03:28:54;;;;;;;3.3;2.1;;;;;;;-4.75;82.02344;93455.61;;;;
2021/01/25 03:29:54;;;;;;;3.3;2.1;;;;;;;-4.75;82.02344;93455.61;;;;
2021/01/25 03:30:55;;;;;;;3.3;2.1;;;;;;;-4.75;82.02344;93455.61;;;;
2021/01/25 03:31:55;;;;;;;3.3;2.1;;;;;;;-4.75;82.02344;93455.61;;;;
2021/01/25 03:32:56;;;;;;;3.3;2.1;;;;;;;-4.75;82.02344;93455.61;;;;
2021/01/25 03:33:56;;;;;;;3.3;2.1;;;;;;;-4.75;82.02344;93455.61;;;;
2021/01/25 03:34:57;;;;;;;3.3;2.1;;;;;;;-4.75;82.02344;93455.61;;;;
2021/01/25 03:35:57;;;;;;;3.3;2.1;;;;;;;-4.75;82.02344;93455.61;;;;
2021/01/25 03:36:58;;;;;;;3.3;2.1;;;;;;;-4.75;82.02344;93455.61;;;;
2021/01/25 03:37:59;;;;;;;3.3;2.1;;;;;;;-4.75;82.02344;93455.61;;;;
2021/01/25 03:38:59;;;;;;;3.15;2;;;;;;;-4.5;81.55957;93452.77;;;;
2021/01/25 03:40:00;;;;;;;3.15;2;;;;;;;-4.5;81.55957;93452.77;;;;
2021/01/25 03:41:00;;;;;;;3.15;2;;;;;;;-4.5;81.55957;93452.77;;;;
2021/01/25 03:42:01;;;;;;;3.15;2;;;;;;;-4.5;81.55957;93452.77;;;;
2021/01/25 03:43:02;;;;;;;3.15;2;;;;;;;-4.5;81.55957;93452.77;;;;
2021/01/25 03:44:03;;;;;;;3.15;2;;;;;;;-4.5;81.55957;93452.77;;;;
2021/01/25 03:45:04;;;;;;;3.15;2;;;;;;;-4.5;81.55957;93452.77;;;;
2021/01/25 03:46:06;;;;;;;3.15;2;;;;;;;-4.5;81.55957;93452.77;;;;
2021/01/25 03:47:06;;;;;;;3.15;2;;;;;;;-4.5;81.55957;93452.77;;;;
2021/01/25 03:48:07;;;;;;;3.15;2;;;;;;;-4.5;81.55957;93452.77;;;;
2021/01/25 03:49:08;;;;;;;3.15;2;;;;;;;-4.5;81.55957;93452.77;;;;
2021/01/25 03:50:08;;;;;;;3.7;1.7;;;;;;;-4.54;81.31348;93455.58;;;;
2021/01/25 03:51:10;;;;;;;3.7;1.7;;;;;;;-4.54;81.31348;93455.58;;;;
2021/01/25 03:52:10;;;;;;;3.7;1.7;;;;;;;-4.54;81.31348;93455.58;;;;
2021/01/25 03:53:11;;;;;;;3.7;1.7;;;;;;;-4.54;81.31348;93455.58;;;;
2021/01/25 03:54:12;;;;;;;3.7;1.7;;;;;;;-4.54;81.31348;93455.58;;;;
2021/01/25 03:55:12;;;;;;;3.7;1.7;;;;;;;-4.54;81.31348;93455.58;;;;
2021/01/25 03:56:13;;;;;;;3.7;1.7;;;;;;;-4.54;81.31348;93455.58;;;;
2021/01/25 03:57:14;;;;;;;3.7;1.7;;;;;;;-4.54;81.31348;93455.58;;;;
2021/01/25 03:58:14;;;;;;;3.7;1.7;;;;;;;-4.54;81.31348;93455.58;;;;
2021/01/25 03:59:15;;;;;;;3.7;1.7;;;;;;;-4.54;81.31348;93455.58;;;;
2021/01/25 04:00:15;;;;;;;3.5;1.8;;;;;;;-4.71;81.39453;93456.34;;;;
2021/01/25 04:01:17;;;;;;;3.5;1.8;;;;;;;-4.71;81.39453;93456.34;;;;
2021/01/25 04:02:17;;;;;;;3.5;1.8;;;;;;;-4.71;81.39453;93456.34;;;;
2021/01/25 04:03:18;;;;;;;3.5;1.8;;;;;;;-4.71;81.39453;93456.34;;;;
2021/01/25 04:04:19;;;;;;;3.5;1.8;;;;;;;-4.71;81.39453;93456.34;;;;
2021/01/25 04:05:19;;;;;;;3.5;1.8;;;;;;;-4.71;81.39453;93456.34;;;;
2021/01/25 04:06:20;;;;;;;3.5;1.8;;;;;;;-4.71;81.39453;93456.34;;;;
2021/01/25 04:07:20;;;;;;;3.5;1.8;;;;;;;-4.71;81.39453;93456.34;;;;
2021/01/25 04:08:21;;;;;;;3.5;1.8;;;;;;;-4.71;81.39453;93456.34;;;;
2021/01/25 04:09:21;;;;;;;3.5;1.8;;;;;;;-4.71;81.39453;93456.34;;;;
2021/01/25 04:10:22;;;;;;;3.5;1.8;;;;;;;-4.71;81.39453;93456.34;;;;
2021/01/25 04:11:22;;;;;;;2.55;1.9;;;;;;;-4.85;81.58301;93465.53;;;;
2021/01/25 04:12:24;;;;;;;2.55;1.9;;;;;;;-4.85;81.58301;93465.53;;;;
2021/01/25 04:13:25;;;;;;;2.55;1.9;;;;;;;-4.85;81.58301;93465.53;;;;
2021/01/25 04:14:26;;;;;;;2.55;1.9;;;;;;;-4.85;81.58301;93465.53;;;;
2021/01/25 04:15:26;;;;;;;2.55;1.9;;;;;;;-4.85;81.58301;93465.53;;;;
2021/01/25 04:16:27;;;;;;;2.55;1.9;;;;;;;-4.85;81.58301;93465.53;;;;
2021/01/25 04:17:27;;;;;;;2.55;1.9;;;;;;;-4.85;81.58301;93465.53;;;;
2021/01/25 04:18:28;;;;;;;2.55;1.9;;;;;;;-4.85;81.58301;93465.53;;;;
2021/01/25 04:19:28;;;;;;;2.55;1.9;;;;;;;-4.85;81.58301;93465.53;;;;
2021/01/25 04:20:29;;;;;;;2.55;1.9;;;;;;;-4.85;81.58301;93465.53;;;;
2021/01/25 04:21:29;;;;;;;2.3;1.85;;;;;;;-5.02;81.90039;93473.86;;;;
2021/01/25 04:22:30;;;;;;;2.3;1.85;;;;;;;-5.02;81.90039;93473.86;;;;
2021/01/25 04:23:31;;;;;;;2.3;1.85;;;;;;;-5.02;81.90039;93473.86;;;;
2021/01/25 04:24:31;;;;;;;2.3;1.85;;;;;;;-5.02;81.90039;93473.86;;;;
2021/01/25 04:25:32;;;;;;;2.3;1.85;;;;;;;-5.02;81.90039;93473.86;;;;
2021/01/25 04:26:32;;;;;;;2.3;1.85;;;;;;;-5.02;81.90039;93473.86;;;;
2021/01/25 04:27:33;;;;;;;2.3;1.85;;;;;;;-5.02;81.90039;93473.86;;;;
2021/01/25 04:28:33;;;;;;;2.3;1.85;;;;;;;-5.02;81.90039;93473.86;;;;
2021/01/25 04:29:34;;;;;;;2.3;1.85;;;;;;;-5.02;81.90039;93473.86;;;;
2021/01/25 04:30:34;;;;;;;2.3;1.85;;;;;;;-5.02;81.90039;93473.86;;;;
2021/01/25 04:31:35;;;;;;;2.3;1.85;;;;;;;-5.02;81.90039;93473.86;;;;
2021/01/25 04:32:35;;;;;;;3.7;1.75;;;;;;;-5.15;82.26563;93453.99;;;;
2021/01/25 04:33:37;;;;;;;3.7;1.75;;;;;;;-5.15;82.26563;93453.99;;;;
2021/01/25 04:34:38;;;;;;;3.7;1.75;;;;;;;-5.15;82.26563;93453.99;;;;
2021/01/25 04:35:40;;;;;;;3.7;1.75;;;;;;;-5.15;82.26563;93453.99;;;;
2021/01/25 04:36:41;;;;;;;3.7;1.75;;;;;;;-5.15;82.26563;93453.99;;;;
2021/01/25 04:37:41;;;;;;;3.7;1.75;;;;;;;-5.15;82.26563;93453.99;;;;
2021/01/25 04:38:42;;;;;;;3.7;1.75;;;;;;;-5.15;82.26563;93453.99;;;;
2021/01/25 04:39:43;;;;;;;3.7;1.75;;;;;;;-5.15;82.26563;93453.99;;;;
2021/01/25 04:40:43;;;;;;;3.7;1.75;;;;;;;-5.15;82.26563;93453.99;;;;
2021/01/25 04:41:44;;;;;;;3.7;1.75;;;;;;;-5.15;82.26563;93453.99;;;;
2021/01/25 04:42:45;;;;;;;5.5;1.6;;;;;;;-5.18;82.42676;93450.31;;;;
2021/01/25 04:43:47;;;;;;;5.5;1.6;;;;;;;-5.18;82.42676;93450.31;;;;
2021/01/25 04:44:48;;;;;;;5.5;1.6;;;;;;;-5.18;82.42676;93450.31;;;;
2021/01/25 04:45:49;;;;;;;5.5;1.6;;;;;;;-5.18;82.42676;93450.31;;;;
2021/01/25 04:46:50;;;;;;;5.5;1.6;;;;;;;-5.18;82.42676;93450.31;;;;
2021/01/25 04:47:51;;;;;;;5.5;1.6;;;;;;;-5.18;82.42676;93450.31;;;;
2021/01/25 04:48:54;;;;;;;5.5;1.6;;;;;;;-5.18;82.42676;93450.31;;;;
2021/01/25 04:49:55;;;;;;;5.5;1.6;;;;;;;-5.18;82.42676;93450.31;;;;
2021/01/25 04:50:56;;;;;;;5.5;1.6;;;;;;;-5.18;82.42676;93450.31;;;;
2021/01/25 04:51:57;;;;;;;5.5;1.6;;;;;;;-5.18;82.42676;93450.31;;;;
2021/01/25 04:52:58;;;;;;;5.5;1.6;;;;;;;-5.18;82.42676;93450.31;;;;
2021/01/25 04:53:59;;;;;;;8.1;1.8;;;;;;;-5.2;82.4209;93456.37;;;;
2021/01/25 04:55:01;;;;;;;8.1;1.8;;;;;;;-5.2;82.4209;93456.37;;;;
2021/01/25 04:56:02;;;;;;;8.1;1.8;;;;;;;-5.2;82.4209;93456.37;;;;
2021/01/25 04:57:03;;;;;;;8.1;1.8;;;;;;;-5.2;82.4209;93456.37;;;;
2021/01/25 04:58:04;;;;;;;8.1;1.8;;;;;;;-5.2;82.4209;93456.37;;;;
2021/01/25 04:59:05;;;;;;;8.1;1.8;;;;;;;-5.2;82.4209;93456.37;;;;
2021/01/25 05:00:07;;;;;;;8.1;1.8;;;;;;;-5.2;82.4209;93456.37;;;;
2021/01/25 05:01:09;;;;;;;8.1;1.8;;;;;;;-5.2;82.4209;93456.37;;;;
2021/01/25 05:02:10;;;;;;;8.1;1.8;;;;;;;-5.2;82.4209;93456.37;;;;
2021/01/25 05:03:11;;;;;;;8.1;1.8;;;;;;;-5.2;82.4209;93456.37;;;;
2021/01/25 05:04:11;;;;;;;2.35;1.55;;;;;;;-5.06;82.52051;93470.39;;;;
2021/01/25 05:05:12;;;;;;;2.35;1.55;;;;;;;-5.06;82.52051;93470.39;;;;
2021/01/25 05:06:13;;;;;;;2.35;1.55;;;;;;;-5.06;82.52051;93470.39;;;;
2021/01/25 05:07:13;;;;;;;2.35;1.55;;;;;;;-5.06;82.52051;93470.39;;;;
2021/01/25 05:08:14;;;;;;;2.35;1.55;;;;;;;-5.06;82.52051;93470.39;;;;
2021/01/25 05:09:14;;;;;;;2.35;1.55;;;;;;;-5.06;82.52051;93470.39;;;;
2021/01/25 05:10:15;;;;;;;2.35;1.55;;;;;;;-5.06;82.52051;93470.39;;;;
2021/01/25 05:11:15;;;;;;;2.35;1.55;;;;;;;-5.06;82.52051;93470.39;;;;
2021/01/25 05:12:17;;;;;;;2.35;1.55;;;;;;;-5.06;82.52051;93470.39;;;;
2021/01/25 05:13:18;;;;;;;2.35;1.55;;;;;;;-5.06;82.52051;93470.39;;;;
2021/01/25 05:14:21;;;;;;;2.35;1.55;;;;;;;-5.06;82.52051;93470.39;;;;
2021/01/25 05:15:21;;;;;;;1.6;1.45;;;;;;;-4.84;82.36914;93463.2;;;;
2021/01/25 05:16:25;;;;;;;1.6;1.45;;;;;;;-4.84;82.36914;93463.2;;;;
2021/01/25 05:17:25;;;;;;;1.6;1.45;;;;;;;-4.84;82.36914;93463.2;;;;
2021/01/25 05:18:26;;;;;;;1.6;1.45;;;;;;;-4.84;82.36914;93463.2;;;;
2021/01/25 05:19:26;;;;;;;1.6;1.45;;;;;;;-4.84;82.36914;93463.2;;;;
2021/01/25 05:20:27;;;;;;;1.6;1.45;;;;;;;-4.84;82.36914;93463.2;;;;
2021/01/25 05:21:29;;;;;;;1.6;1.45;;;;;;;-4.84;82.36914;93463.2;;;;
2021/01/25 05:22:33;;;;;;;1.6;1.45;;;;;;;-4.84;82.36914;93463.2;;;;
2021/01/25 05:23:36;;;;;;;1.6;1.45;;;;;;;-4.84;82.36914;93463.2;;;;
2021/01/25 05:24:38;;;;;;;1.6;1.45;;;;;;;-4.84;82.36914;93463.2;;;;
2021/01/25 05:25:47;;;;;;;2.9;1.3;;;;;;;-4.63;82.34863;93472.02;;;;
2021/01/25 05:26:48;;;;;;;2.9;1.3;;;;;;;-4.63;82.34863;93472.02;;;;
2021/01/25 05:27:51;;;;;;;2.9;1.3;;;;;;;-4.63;82.34863;93472.02;;;;
2021/01/25 05:28:51;;;;;;;2.9;1.3;;;;;;;-4.63;82.34863;93472.02;;;;
2021/01/25 05:29:52;;;;;;;2.9;1.3;;;;;;;-4.63;82.34863;93472.02;;;;
2021/01/25 05:30:53;;;;;;;2.9;1.3;;;;;;;-4.63;82.34863;93472.02;;;;
2021/01/25 05:31:53;;;;;;;2.9;1.3;;;;;;;-4.63;82.34863;93472.02;;;;
2021/01/25 05:32:55;;;;;;;2.9;1.3;;;;;;;-4.63;82.34863;93472.02;;;;
2021/01/25 05:33:57;;;;;;;2.9;1.3;;;;;;;-4.63;82.34863;93472.02;;;;
2021/01/25 05:34:58;;;;;;;2.9;1.3;;;;;;;-4.63;82.34863;93472.02;;;;
2021/01/25 05:36:02;;;;;;;2.5;1.35;;;;;;;-4.41;82.36133;93467.43;;;;
2021/01/25 05:37:04;;;;;;;2.5;1.35;;;;;;;-4.41;82.36133;93467.43;;;;
2021/01/25 05:38:04;;;;;;;2.5;1.35;;;;;;;-4.41;82.36133;93467.43;;;;
2021/01/25 05:39:07;;;;;;;2.5;1.35;;;;;;;-4.41;82.36133;93467.43;;;;
2021/01/25 05:40:07;;;;;;;2.5;1.35;;;;;;;-4.41;82.36133;93467.43;;;;
2021/01/25 05:41:14;;;;;;;2.5;1.35;;;;;;;-4.41;82.36133;93467.43;;;;
2021/01/25 05:42:16;;;;;;;2.5;1.35;;;;;;;-4.41;82.36133;93467.43;;;;
2021/01/25 05:43:16;;;;;;;2.5;1.35;;;;;;;-4.41;82.36133;93467.43;;;;
2021/01/25 05:44:17;;;;;;;2.5;1.35;;;;;;;-4.41;82.36133;93467.43;;;;
2021/01/25 05:45:17;;;;;;;2.5;1.35;;;;;;;-4.41;82.36133;93467.43;;;;
2021/01/25 05:46:19;;;;;;;2.5;1.35;;;;;;;-4.41;82.36133;93467.43;;;;
2021/01/25 05:47:20;;;;;;;4.2;1.7;;;;;;;-4.16;82.23438;93466.94;;;;
2021/01/25 05:48:20;;;;;;;4.2;1.7;;;;;;;-4.16;82.23438;93466.94;;;;
2021/01/25 05:49:21;;;;;;;4.2;1.7;;;;;;;-4.16;82.23438;93466.94;;;;
2021/01/25 05:50:26;;;;;;;4.2;1.7;;;;;;;-4.16;82.23438;93466.94;;;;
2021/01/25 05:51:30;;;;;;;4.2;1.7;;;;;;;-4.16;82.23438;93466.94;;;;
2021/01/25 05:52:32;;;;;;;4.2;1.7;;;;;;;-4.16;82.23438;93466.94;;;;